Terminal Aerodrome Forecast
Issued by NWS

Home | Current Version | Previous Version | Text Only | Print | Product List | Glossary On
Versions: 1 2 3 4 5 6 7 8 9 10 11 12 13 14 15 16 17
000
FTUS45 KTFX 051128
TAFBZN
TAF
KBZN 051128Z 0512/0612 VRB04KT P6SM FEW010 BKN025
      TEMPO 0512/0514 1 1/2SM BR BKN006
     FM051500 24005KT P6SM SCT025 OVC040
     FM060000 22011KT P6SM VCSH SCT030 OVC060=

USA.gov is the U.S. government's official web portal to all federal, state and local government web resources and services.